createdAt,value
2023-05-11T00:00:36.332Z,0.00
2023-05-11T00:02:36.743Z,0.00
2023-05-11T00:04:37.106Z,0.00
2023-05-11T00:06:37.521Z,0.00
2023-05-11T00:08:37.798Z,0.00
2023-05-11T00:10:42.969Z,0.00
2023-05-11T00:12:43.228Z,0.00
2023-05-11T00:14:43.742Z,0.00
2023-05-11T00:16:43.999Z,0.00
2023-05-11T00:18:44.360Z,0.00
2023-05-11T00:20:44.596Z,0.00
2023-05-11T00:22:45.075Z,0.00
2023-05-11T00:24:45.346Z,0.00
2023-05-11T00:26:45.625Z,0.00
2023-05-11T00:28:45.976Z,0.00
2023-05-11T00:30:46.210Z,0.00
2023-05-11T00:32:46.606Z,0.00
2023-05-11T00:34:46.878Z,0.00
2023-05-11T00:36:47.142Z,0.00
2023-05-11T00:38:47.468Z,0.00
2023-05-11T00:40:47.768Z,0.00
2023-05-11T00:42:48.057Z,0.00
2023-05-11T00:44:48.331Z,0.00
2023-05-11T00:46:48.697Z,0.00
2023-05-11T00:48:49.089Z,0.00
2023-05-11T00:50:49.346Z,0.00
2023-05-11T00:52:49.657Z,0.00
2023-05-11T00:54:50.101Z,0.00
2023-05-11T00:56:50.388Z,0.00
2023-05-11T00:58:50.724Z,0.00
2023-05-11T01:00:51.024Z,0.00
2023-05-11T01:02:51.721Z,0.00
2023-05-11T01:04:52.052Z,0.00
2023-05-11T01:06:52.364Z,0.00
2023-05-11T01:08:52.657Z,0.00
2023-05-11T01:10:52.937Z,0.00
2023-05-11T01:12:53.233Z,0.00
2023-05-11T01:14:53.533Z,0.00
2023-05-11T01:16:54.075Z,0.00
2023-05-11T01:18:54.459Z,0.00
2023-05-11T01:20:54.826Z,0.00
2023-05-11T01:22:55.130Z,0.00
2023-05-11T01:24:55.572Z,0.00
2023-05-11T01:26:55.853Z,0.00
2023-05-11T01:28:56.225Z,0.00
2023-05-11T01:30:56.457Z,0.00
2023-05-11T01:32:56.918Z,0.00
2023-05-11T01:34:57.279Z,0.00
2023-05-11T01:36:57.543Z,0.00
2023-05-11T01:38:57.828Z,0.00
2023-05-11T01:40:58.188Z,0.00
2023-05-11T01:42:58.434Z,0.00
2023-05-11T01:44:58.727Z,0.00
2023-05-11T01:46:59.053Z,0.00
2023-05-11T01:48:59.303Z,0.00
2023-05-11T01:50:59.586Z,0.00
2023-05-11T01:52:59.903Z,0.00
2023-05-11T01:55:00.300Z,0.00
2023-05-11T01:57:00.623Z,0.00
2023-05-11T01:59:00.951Z,0.00
2023-05-11T02:01:01.281Z,0.00
2023-05-11T02:03:01.824Z,0.00
2023-05-11T02:05:02.181Z,0.00
2023-05-11T02:07:02.453Z,0.00
2023-05-11T02:09:02.955Z,0.00
2023-05-11T02:11:03.261Z,0.00
2023-05-11T02:13:03.551Z,0.00
2023-05-11T02:15:03.841Z,0.00
2023-05-11T02:17:04.369Z,0.00
2023-05-11T02:19:04.675Z,0.00
2023-05-11T02:21:04.966Z,0.00
2023-05-11T02:23:05.241Z,0.00
2023-05-11T02:25:05.730Z,0.00
2023-05-11T02:27:06.010Z,0.00
2023-05-11T02:29:06.335Z,0.00
2023-05-11T02:31:06.690Z,0.00
2023-05-11T02:33:07.211Z,0.00
2023-05-11T02:35:07.527Z,0.00
2023-05-11T02:37:07.890Z,0.00
2023-05-11T02:39:08.294Z,0.00
2023-05-11T02:41:08.764Z,0.00
2023-05-11T02:43:09.090Z,0.00
2023-05-11T02:45:09.355Z,0.00
2023-05-11T02:47:09.657Z,0.00
2023-05-11T02:49:10.030Z,0.00
2023-05-11T02:51:10.604Z,0.00
2023-05-11T02:53:10.919Z,0.00
2023-05-11T02:55:16.146Z,0.00
2023-05-11T02:57:16.577Z,0.00
2023-05-11T02:59:16.891Z,0.00
2023-05-11T03:01:17.393Z,0.00
2023-05-11T03:03:17.805Z,0.00
2023-05-11T03:05:18.123Z,0.00
2023-05-11T03:07:18.412Z,0.00
2023-05-11T03:09:18.698Z,0.00
2023-05-11T03:11:19.064Z,0.00
2023-05-11T03:13:19.384Z,0.00
2023-05-11T03:15:19.754Z,0.00
2023-05-11T03:17:20.118Z,0.00
2023-05-11T03:19:20.379Z,0.00
2023-05-11T03:21:20.813Z,0.00
2023-05-11T03:23:21.092Z,4.00
2023-05-11T03:25:21.419Z,0.00
2023-05-11T03:27:21.684Z,4.00
2023-05-11T03:29:22.011Z,4.00
2023-05-11T03:31:22.469Z,4.00
2023-05-11T03:33:22.817Z,8.00
2023-05-11T03:35:23.121Z,12.00
2023-05-11T03:37:23.452Z,12.00
2023-05-11T03:39:23.804Z,20.00
2023-05-11T03:41:24.104Z,20.00
2023-05-11T03:43:24.465Z,28.00
2023-05-11T03:45:24.752Z,32.00
2023-05-11T03:47:25.107Z,36.00
2023-05-11T03:49:25.341Z,44.00
2023-05-11T03:51:25.888Z,52.00
2023-05-11T03:53:26.175Z,56.00
2023-05-11T03:55:26.450Z,64.00
2023-05-11T03:57:26.753Z,80.00
2023-05-11T03:59:27.204Z,88.00
2023-05-11T04:01:27.455Z,100.00
2023-05-11T04:03:28.153Z,124.00
2023-05-11T04:05:28.551Z,140.00
2023-05-11T04:07:28.926Z,148.00
2023-05-11T04:09:29.193Z,184.00
2023-05-11T04:11:29.505Z,192.00
2023-05-11T04:13:29.775Z,228.00
2023-05-11T04:15:30.157Z,236.00
2023-05-11T04:17:30.453Z,252.00
2023-05-11T04:19:30.774Z,264.00
2023-05-11T04:21:31.170Z,292.00
2023-05-11T04:23:31.428Z,312.00
2023-05-11T04:25:31.751Z,320.00
2023-05-11T04:27:32.084Z,368.00
2023-05-11T04:29:32.562Z,368.00
2023-05-11T04:31:32.917Z,372.00
2023-05-11T04:33:33.201Z,392.00
2023-05-11T04:35:33.671Z,432.00
2023-05-11T04:37:33.982Z,428.00
2023-05-11T04:39:34.269Z,468.00
2023-05-11T04:41:39.566Z,484.00
2023-05-11T04:43:40.161Z,528.00
2023-05-11T04:45:40.462Z,584.00
2023-05-11T04:47:40.749Z,616.00
2023-05-11T04:49:41.086Z,640.00
2023-05-11T04:51:41.359Z,756.00
2023-05-11T04:53:42.424Z,764.00
2023-05-11T04:55:42.836Z,824.00
2023-05-11T04:57:43.174Z,844.00
2023-05-11T04:59:43.600Z,936.00
2023-05-11T05:01:43.859Z,1000.00
2023-05-11T05:03:44.307Z,1104.00
2023-05-11T05:05:44.596Z,1176.00
2023-05-11T05:07:44.911Z,1156.00
2023-05-11T05:09:45.653Z,1300.00
2023-05-11T05:11:45.942Z,1280.00
2023-05-11T05:13:46.251Z,1320.00
2023-05-11T05:15:46.646Z,1344.00
2023-05-11T05:17:47.082Z,1376.00
2023-05-11T05:19:47.752Z,1476.00
2023-05-11T05:21:48.026Z,1476.00
2023-05-11T05:23:48.427Z,1680.00
2023-05-11T05:25:48.826Z,1592.00
2023-05-11T05:27:49.187Z,1712.00
2023-05-11T05:29:49.433Z,1676.00
2023-05-11T05:31:49.795Z,1704.00
2023-05-11T05:33:50.225Z,1884.00
2023-05-11T05:35:50.499Z,1800.00
2023-05-11T05:37:51.041Z,1748.00
2023-05-11T05:39:51.354Z,1692.00
2023-05-11T05:41:51.604Z,1748.00
2023-05-11T05:43:52.016Z,1892.00
2023-05-11T05:45:52.349Z,1772.00
2023-05-11T05:47:52.677Z,2012.00
2023-05-11T05:49:53.090Z,1904.00
2023-05-11T05:51:53.417Z,2000.00
2023-05-11T05:53:53.749Z,2144.00
2023-05-11T05:55:54.016Z,2152.00
2023-05-11T05:57:54.354Z,2200.00
2023-05-11T05:59:54.663Z,2168.00
2023-05-11T06:01:55.009Z,2344.00
2023-05-11T06:03:55.529Z,2332.00
2023-05-11T06:05:55.960Z,2252.00
2023-05-11T06:08:09.087Z,2280.00
2023-05-11T06:10:01.492Z,2304.00
2023-05-11T06:12:01.792Z,2364.00
2023-05-11T06:14:02.089Z,2384.00
2023-05-11T06:16:02.465Z,2512.00
2023-05-11T06:18:02.780Z,2712.00
2023-05-11T06:20:03.161Z,2684.00
2023-05-11T06:22:05.873Z,2644.00
2023-05-11T06:24:07.065Z,2720.00
2023-05-11T06:26:07.329Z,2800.00
2023-05-11T06:28:07.713Z,2908.00
2023-05-11T06:30:08.876Z,3060.00
2023-05-11T06:32:09.534Z,2976.00
2023-05-11T06:34:09.964Z,3036.00
2023-05-11T06:36:10.407Z,3156.00
2023-05-11T06:38:10.690Z,3432.00
2023-05-11T06:40:10.992Z,3488.00
2023-05-11T06:42:11.338Z,3260.00
2023-05-11T06:44:11.627Z,3488.00
2023-05-11T06:46:12.040Z,3360.00
2023-05-11T06:48:12.451Z,3648.00
2023-05-11T06:50:12.800Z,3564.00
2023-05-11T06:52:13.131Z,3624.00
2023-05-11T06:54:13.422Z,3784.00
2023-05-11T06:56:13.749Z,3596.00
2023-05-11T06:58:14.076Z,3836.00
2023-05-11T07:00:14.570Z,3820.00
2023-05-11T07:02:14.850Z,3760.00
2023-05-11T07:04:15.247Z,4020.00
2023-05-11T07:06:15.675Z,3852.00
2023-05-11T07:08:15.934Z,4104.00
2023-05-11T07:10:16.439Z,4028.00
2023-05-11T07:12:16.926Z,3960.00
2023-05-11T07:14:17.268Z,3896.00
2023-05-11T07:16:17.601Z,4008.00
2023-05-11T07:18:18.021Z,4044.00
2023-05-11T07:20:18.536Z,4148.00
2023-05-11T07:22:18.999Z,3940.00
2023-05-11T07:24:19.274Z,4056.00
2023-05-11T07:26:19.708Z,4244.00
2023-05-11T07:28:20.036Z,3904.00
2023-05-11T07:30:20.713Z,3836.00
2023-05-11T07:32:21.317Z,3984.00
2023-05-11T07:34:21.604Z,3820.00
2023-05-11T07:36:21.888Z,4104.00
2023-05-11T07:38:22.196Z,4328.00
2023-05-11T07:40:22.492Z,4360.00
2023-05-11T07:42:22.843Z,4436.00
2023-05-11T07:44:23.183Z,4424.00
2023-05-11T07:46:23.537Z,4228.00
2023-05-11T07:48:23.849Z,4324.00
2023-05-11T07:50:24.841Z,4052.00
2023-05-11T07:52:25.527Z,4052.00
2023-05-11T07:54:25.929Z,3908.00
2023-05-11T07:56:26.192Z,3416.00
2023-05-11T07:58:26.478Z,3488.00
2023-05-11T08:00:26.814Z,3252.00
2023-05-11T08:02:27.183Z,3460.00
2023-05-11T08:04:27.525Z,3296.00
2023-05-11T08:06:27.826Z,3264.00
2023-05-11T08:08:28.107Z,3352.00
2023-05-11T08:10:28.577Z,3052.00
2023-05-11T08:12:28.889Z,3316.00
2023-05-11T08:14:29.150Z,3384.00
2023-05-11T08:16:29.522Z,3228.00
2023-05-11T08:18:29.918Z,3140.00
2023-05-11T08:20:30.286Z,3004.00
2023-05-11T08:22:30.677Z,2788.00
2023-05-11T08:24:31.117Z,2952.00
2023-05-11T08:26:31.405Z,3436.00
2023-05-11T08:28:31.682Z,3516.00
2023-05-11T08:30:31.987Z,3712.00
2023-05-11T08:32:36.178Z,4404.00
2023-05-11T08:34:37.558Z,4692.00
2023-05-11T08:36:37.945Z,5156.00
2023-05-11T08:38:38.206Z,5452.00
2023-05-11T08:40:38.521Z,5624.00
2023-05-11T08:42:38.817Z,5456.00
2023-05-11T08:44:39.112Z,5324.00
2023-05-11T08:46:39.424Z,5036.00
2023-05-11T08:48:39.707Z,5068.00
2023-05-11T08:50:40.231Z,4740.00
2023-05-11T08:52:40.463Z,4492.00
2023-05-11T08:54:41.101Z,4372.00
2023-05-11T08:56:41.436Z,4392.00
2023-05-11T08:58:41.830Z,4676.00
2023-05-11T09:00:42.132Z,4080.00
2023-05-11T09:02:42.512Z,3732.00
2023-05-11T09:04:42.881Z,3620.00
2023-05-11T09:06:43.116Z,3572.00
2023-05-11T09:08:43.442Z,3584.00
2023-05-11T09:10:43.796Z,3408.00
2023-05-11T09:12:44.045Z,3268.00
2023-05-11T09:14:44.452Z,3476.00
2023-05-11T09:16:44.732Z,3488.00
2023-05-11T09:18:45.118Z,4028.00
2023-05-11T09:20:45.433Z,4292.00
2023-05-11T09:22:45.783Z,4268.00
2023-05-11T09:24:46.084Z,3452.00
2023-05-11T09:26:46.372Z,3324.00
2023-05-11T09:28:46.934Z,3092.00
2023-05-11T09:30:47.218Z,3296.00
2023-05-11T09:32:47.952Z,3780.00
2023-05-11T09:34:48.461Z,4032.00
2023-05-11T09:36:48.956Z,4136.00
2023-05-11T09:38:49.282Z,4092.00
2023-05-11T09:40:49.685Z,4604.00
2023-05-11T09:42:50.024Z,4996.00
2023-05-11T09:44:50.470Z,5624.00
2023-05-11T09:46:50.940Z,5512.00
2023-05-11T09:48:51.236Z,5540.00
2023-05-11T09:50:51.532Z,4944.00
2023-05-11T09:52:51.911Z,4724.00
2023-05-11T09:54:52.305Z,4444.00
2023-05-11T09:56:52.605Z,3968.00
2023-05-11T09:58:52.912Z,3324.00
2023-05-11T10:00:53.216Z,3064.00
2023-05-11T10:02:53.557Z,3368.00
2023-05-11T10:04:53.911Z,3300.00
2023-05-11T10:06:54.310Z,3580.00
2023-05-11T10:08:54.694Z,3224.00
2023-05-11T10:10:54.959Z,2920.00
2023-05-11T10:12:55.309Z,2648.00
2023-05-11T10:14:55.702Z,2340.00
2023-05-11T10:16:55.990Z,2416.00
2023-05-11T10:18:56.374Z,2568.00
2023-05-11T10:20:56.658Z,2876.00
2023-05-11T10:22:56.946Z,3536.00
2023-05-11T10:24:57.322Z,3804.00
2023-05-11T10:26:57.684Z,4328.00
2023-05-11T10:28:57.958Z,4312.00
2023-05-11T10:30:58.284Z,4280.00
2023-05-11T10:32:58.653Z,4420.00
2023-05-11T10:34:58.972Z,4344.00
2023-05-11T10:36:59.232Z,4864.00
2023-05-11T10:38:59.562Z,5492.00
2023-05-11T10:40:59.864Z,5932.00
2023-05-11T10:43:00.191Z,6036.00
2023-05-11T10:45:00.494Z,5444.00
2023-05-11T10:47:00.885Z,5852.00
2023-05-11T10:49:01.179Z,5860.00
2023-05-11T10:51:01.473Z,6272.00
2023-05-11T10:53:01.768Z,6560.00
2023-05-11T10:55:02.067Z,6620.00
2023-05-11T10:57:02.397Z,6368.00
2023-05-11T10:59:02.808Z,6228.00
2023-05-11T11:01:03.168Z,5976.00
2023-05-11T11:03:03.540Z,6136.00
2023-05-11T11:05:03.928Z,6084.00
2023-05-11T11:07:04.241Z,5968.00
2023-05-11T11:09:04.543Z,6008.00
2023-05-11T11:11:06.628Z,6048.00
2023-05-11T11:13:07.012Z,6240.00
2023-05-11T11:15:07.287Z,6204.00
2023-05-11T11:17:07.633Z,6064.00
2023-05-11T11:19:08.043Z,5804.00
2023-05-11T11:21:08.358Z,5388.00
2023-05-11T11:23:08.711Z,5404.00
2023-05-11T11:25:09.002Z,5892.00
2023-05-11T11:27:09.289Z,6120.00
2023-05-11T11:29:09.651Z,6116.00
2023-05-11T11:31:09.983Z,5784.00
2023-05-11T11:33:10.364Z,5828.00
2023-05-11T11:35:10.691Z,5468.00
2023-05-11T11:37:11.019Z,5652.00
2023-05-11T11:39:11.325Z,5940.00
2023-05-11T11:41:11.620Z,6144.00
2023-05-11T11:43:12.050Z,6716.00
2023-05-11T11:45:12.371Z,7044.00
2023-05-11T11:47:12.706Z,7172.00
2023-05-11T11:49:13.024Z,7112.00
2023-05-11T11:51:13.311Z,7036.00
2023-05-11T11:53:13.800Z,7020.00
2023-05-11T11:55:14.075Z,6736.00
2023-05-11T11:57:14.495Z,6600.00
2023-05-11T11:59:15.602Z,6532.00
2023-05-11T12:01:15.944Z,6584.00
2023-05-11T12:03:16.438Z,6372.00
2023-05-11T12:05:17.006Z,6636.00
2023-05-11T12:07:17.360Z,6712.00
2023-05-11T12:09:17.754Z,6656.00
2023-05-11T12:11:18.301Z,6884.00
2023-05-11T12:13:20.464Z,7076.00
2023-05-11T12:15:21.356Z,7024.00
2023-05-11T12:17:22.303Z,7408.00
2023-05-11T12:19:23.012Z,7204.00
2023-05-11T12:21:24.315Z,7436.00
2023-05-11T12:23:24.678Z,7544.00
2023-05-11T12:25:25.046Z,7764.00
2023-05-11T12:27:25.363Z,7704.00
2023-05-11T12:29:25.635Z,7992.00
2023-05-11T12:31:26.022Z,7512.00
2023-05-11T12:33:26.335Z,7380.00
2023-05-11T12:35:26.629Z,7476.00
2023-05-11T12:37:27.404Z,7704.00
2023-05-11T12:39:27.805Z,7764.00
2023-05-11T12:41:28.113Z,7428.00
2023-05-11T12:43:28.500Z,7016.00
2023-05-11T12:45:30.323Z,7324.00
2023-05-11T12:47:30.803Z,7472.00
2023-05-11T12:49:31.845Z,7376.00
2023-05-11T12:51:32.169Z,7512.00
2023-05-11T12:53:32.467Z,7596.00
2023-05-11T12:55:32.794Z,7352.00
2023-05-11T12:57:33.134Z,7044.00
2023-05-11T12:59:33.557Z,6940.00
2023-05-11T13:01:33.889Z,7040.00
2023-05-11T13:03:34.418Z,7196.00
2023-05-11T13:05:34.792Z,6824.00
2023-05-11T13:07:35.419Z,6528.00
2023-05-11T13:09:35.676Z,6660.00
2023-05-11T13:11:36.020Z,6560.00
2023-05-11T13:13:36.314Z,6804.00
2023-05-11T13:15:36.651Z,7008.00
2023-05-11T13:17:37.149Z,7112.00
2023-05-11T13:19:37.752Z,7432.00
2023-05-11T13:21:38.033Z,7032.00
2023-05-11T13:23:38.350Z,6376.00
2023-05-11T13:25:38.640Z,6140.00
2023-05-11T13:27:38.952Z,6864.00
2023-05-11T13:29:39.290Z,6708.00
2023-05-11T13:31:39.649Z,6456.00
2023-05-11T13:33:44.792Z,6420.00
2023-05-11T13:35:45.122Z,6752.00
2023-05-11T13:37:45.408Z,7088.00
2023-05-11T13:39:45.698Z,6900.00
2023-05-11T13:41:46.007Z,6700.00
2023-05-11T13:43:46.287Z,6116.00
2023-05-11T13:45:46.661Z,6084.00
2023-05-11T13:47:47.012Z,5828.00
2023-05-11T13:49:47.281Z,5524.00
2023-05-11T13:51:47.621Z,6016.00
2023-05-11T13:53:47.982Z,6484.00
2023-05-11T13:55:48.230Z,6544.00
2023-05-11T13:57:48.582Z,6364.00
2023-05-11T13:59:48.886Z,6548.00
2023-05-11T14:01:49.323Z,6328.00
2023-05-11T14:03:49.690Z,6228.00
2023-05-11T14:05:50.024Z,5888.00
2023-05-11T14:07:50.343Z,5536.00
2023-05-11T14:09:50.604Z,5180.00
2023-05-11T14:11:51.034Z,4752.00
2023-05-11T14:13:51.289Z,4924.00
2023-05-11T14:15:51.599Z,4816.00
2023-05-11T14:17:52.032Z,4868.00
2023-05-11T14:19:52.380Z,4936.00
2023-05-11T14:21:52.782Z,4972.00
2023-05-11T14:24:10.054Z,5212.00
2023-05-11T14:25:58.292Z,5432.00
2023-05-11T14:27:58.588Z,5620.00
2023-05-11T14:29:58.876Z,5568.00
2023-05-11T14:31:59.288Z,5332.00
2023-05-11T14:34:04.393Z,5048.00
2023-05-11T14:36:04.690Z,4600.00
2023-05-11T14:38:05.061Z,4308.00
2023-05-11T14:40:05.357Z,4332.00
2023-05-11T14:42:05.736Z,4264.00
2023-05-11T14:44:06.036Z,4548.00
2023-05-11T14:46:06.418Z,4444.00
2023-05-11T14:48:11.792Z,4496.00
2023-05-11T14:50:12.179Z,4152.00
2023-05-11T14:52:12.461Z,4020.00
2023-05-11T14:54:12.790Z,3852.00
2023-05-11T14:56:13.160Z,3676.00
2023-05-11T14:58:13.432Z,3580.00
2023-05-11T15:00:13.895Z,3460.00
2023-05-11T15:02:14.191Z,3324.00
2023-05-11T15:04:14.644Z,3316.00
2023-05-11T15:06:15.116Z,3336.00
2023-05-11T15:08:28.317Z,3508.00
2023-05-11T15:10:20.593Z,3424.00
2023-05-11T15:12:20.905Z,2984.00
2023-05-11T15:14:21.186Z,2932.00
2023-05-11T15:16:21.625Z,2888.00
2023-05-11T15:18:22.015Z,2808.00
2023-05-11T15:20:22.332Z,3012.00
2023-05-11T15:22:22.774Z,2948.00
2023-05-11T15:24:23.098Z,2896.00
2023-05-11T15:26:23.376Z,2656.00
2023-05-11T15:28:23.672Z,2408.00
2023-05-11T15:30:24.134Z,1700.00
2023-05-11T15:32:24.586Z,1384.00
2023-05-11T15:41:14.907Z,1064.00
2023-05-11T15:43:15.395Z,1212.00
2023-05-11T15:45:16.014Z,1412.00
2023-05-11T15:47:16.575Z,1540.00
2023-05-11T15:49:17.188Z,1608.00
2023-05-11T15:51:17.579Z,1736.00
2023-05-11T15:53:17.926Z,1944.00
2023-05-11T15:55:18.404Z,2196.00
2023-05-11T15:57:18.874Z,2204.00
2023-05-11T15:59:19.311Z,2292.00
2023-05-11T16:01:19.602Z,2320.00
2023-05-11T16:03:20.283Z,2088.00
2023-05-11T16:05:20.657Z,2004.00
2023-05-11T16:07:21.233Z,1968.00
2023-05-11T16:09:21.526Z,2284.00
2023-05-11T16:11:21.871Z,2240.00
2023-05-11T16:13:22.163Z,2224.00
2023-05-11T16:15:22.602Z,2268.00
2023-05-11T16:17:22.912Z,2096.00
2023-05-11T16:19:23.222Z,2212.00
2023-05-11T16:21:23.679Z,2076.00
2023-05-11T16:23:23.953Z,2092.00
2023-05-11T16:25:24.258Z,2012.00
2023-05-11T16:27:24.588Z,1952.00
2023-05-11T16:29:24.896Z,2056.00
2023-05-11T16:31:25.586Z,1940.00
2023-05-11T16:33:30.694Z,2040.00
2023-05-11T16:35:31.112Z,2200.00
2023-05-11T16:37:31.356Z,2040.00
2023-05-11T16:39:31.652Z,2132.00
2023-05-11T16:41:31.966Z,1968.00
2023-05-11T16:43:32.218Z,2140.00
2023-05-11T16:45:37.442Z,1980.00
2023-05-11T16:47:37.796Z,2052.00
2023-05-11T16:49:38.136Z,1960.00
2023-05-11T16:51:38.455Z,1852.00
2023-05-11T16:53:38.780Z,1784.00
2023-05-11T16:55:39.140Z,1584.00
2023-05-11T16:57:39.402Z,1396.00
2023-05-11T16:59:39.837Z,1340.00
2023-05-11T17:01:40.235Z,1152.00
2023-05-11T17:03:41.261Z,1080.00
2023-05-11T17:05:41.599Z,1028.00
2023-05-11T17:07:41.920Z,976.00
2023-05-11T17:09:42.239Z,968.00
2023-05-11T17:11:42.543Z,964.00
2023-05-11T17:13:42.889Z,960.00
2023-05-11T17:15:43.196Z,936.00
2023-05-11T17:17:43.581Z,948.00
2023-05-11T17:19:43.905Z,940.00
2023-05-11T17:21:44.177Z,880.00
2023-05-11T17:23:44.526Z,780.00
2023-05-11T17:25:44.898Z,780.00
2023-05-11T17:27:45.181Z,788.00
2023-05-11T17:29:45.510Z,748.00
2023-05-11T17:31:45.925Z,708.00
2023-05-11T17:33:47.261Z,728.00
2023-05-11T17:35:47.902Z,688.00
2023-05-11T17:37:48.328Z,668.00
2023-05-11T17:39:48.935Z,624.00
2023-05-11T17:41:49.730Z,616.00
2023-05-11T17:43:50.216Z,648.00
2023-05-11T17:45:50.787Z,620.00
2023-05-11T17:47:51.451Z,544.00
2023-05-11T17:49:51.874Z,528.00
2023-05-11T17:51:53.210Z,560.00
2023-05-11T17:53:53.537Z,532.00
2023-05-11T17:55:53.837Z,480.00
2023-05-11T17:57:54.359Z,448.00
2023-05-11T17:59:54.693Z,456.00
2023-05-11T18:01:54.997Z,436.00
2023-05-11T18:03:55.571Z,400.00
2023-05-11T18:06:00.626Z,400.00
2023-05-11T18:08:00.968Z,396.00
2023-05-11T18:10:01.355Z,368.00
2023-05-11T18:12:01.693Z,340.00
2023-05-11T18:14:02.034Z,304.00
2023-05-11T18:16:02.461Z,272.00
2023-05-11T18:18:02.834Z,264.00
2023-05-11T18:20:03.320Z,244.00
2023-05-11T18:22:03.609Z,236.00
2023-05-11T18:24:03.892Z,196.00
2023-05-11T18:26:04.491Z,176.00
2023-05-11T18:28:04.867Z,164.00
2023-05-11T18:30:10.020Z,148.00
2023-05-11T18:32:10.361Z,128.00
2023-05-11T18:34:10.703Z,108.00
2023-05-11T18:36:11.073Z,96.00
2023-05-11T18:38:11.360Z,88.00
2023-05-11T18:40:11.641Z,80.00
2023-05-11T18:42:17.022Z,76.00
2023-05-11T18:44:17.283Z,60.00
2023-05-11T18:46:17.721Z,52.00
2023-05-11T18:48:18.048Z,44.00
2023-05-11T18:50:20.638Z,44.00
2023-05-11T18:52:21.259Z,36.00
2023-05-11T18:54:21.906Z,28.00
2023-05-11T18:56:22.200Z,24.00
2023-05-11T18:58:22.828Z,24.00
2023-05-11T19:00:23.203Z,20.00
2023-05-11T19:02:23.641Z,16.00
2023-05-11T19:04:23.935Z,12.00
2023-05-11T19:06:24.298Z,12.00
2023-05-11T19:08:24.627Z,8.00
2023-05-11T19:10:25.040Z,8.00
2023-05-11T19:12:25.360Z,8.00
2023-05-11T19:14:25.750Z,4.00
2023-05-11T19:16:26.601Z,4.00
2023-05-11T19:18:27.402Z,0.00
2023-05-11T19:20:28.193Z,4.00
2023-05-11T19:22:30.207Z,0.00
2023-05-11T19:24:32.797Z,0.00
2023-05-11T19:26:35.061Z,0.00
2023-05-11T19:28:36.240Z,0.00
2023-05-11T19:30:39.173Z,0.00
2023-05-11T19:32:40.053Z,0.00
2023-05-11T19:34:41.188Z,0.00
2023-05-11T19:36:41.473Z,0.00
2023-05-11T19:38:41.807Z,0.00
2023-05-11T19:40:46.091Z,0.00
2023-05-11T19:42:47.015Z,0.00
2023-05-11T19:44:47.383Z,0.00
2023-05-11T19:46:47.849Z,0.00
2023-05-11T19:48:48.188Z,0.00
2023-05-11T19:50:48.701Z,0.00
2023-05-11T19:52:49.287Z,0.00
2023-05-11T19:54:49.666Z,0.00
2023-05-11T19:56:50.049Z,0.00
2023-05-11T19:58:50.724Z,0.00
2023-05-11T20:00:52.979Z,0.00
2023-05-11T20:02:53.732Z,0.00
2023-05-11T20:05:00.867Z,0.00
2023-05-11T20:07:09.146Z,0.00
2023-05-11T20:09:17.166Z,0.00
2023-05-11T20:12:01.818Z,0.00
2023-05-11T20:14:02.397Z,0.00
2023-05-11T20:16:03.147Z,0.00
2023-05-11T20:18:03.675Z,0.00
2023-05-11T20:20:03.994Z,0.00
2023-05-11T20:22:04.380Z,0.00
2023-05-11T20:24:04.746Z,0.00
2023-05-11T20:26:05.386Z,0.00
2023-05-11T20:28:05.788Z,0.00
2023-05-11T20:30:48.854Z,0.00
2023-05-11T20:34:52.946Z,0.00
2023-05-11T20:36:53.832Z,0.00
2023-05-11T20:38:54.279Z,0.00
2023-05-11T20:40:54.879Z,0.00
2023-05-11T20:42:55.173Z,0.00
2023-05-11T20:44:55.680Z,0.00
2023-05-11T20:46:56.038Z,0.00
2023-05-11T20:48:56.404Z,0.00
2023-05-11T20:50:56.736Z,0.00
2023-05-11T20:52:57.202Z,0.00
2023-05-11T20:54:57.541Z,0.00
2023-05-11T20:56:58.176Z,0.00
2023-05-11T20:58:58.457Z,0.00
2023-05-11T21:01:43.297Z,0.00
2023-05-11T21:04:31.754Z,0.00
2023-05-11T21:06:32.458Z,0.00
2023-05-11T21:08:33.134Z,0.00
2023-05-11T21:11:19.469Z,0.00
2023-05-11T21:13:20.258Z,0.00
2023-05-11T21:15:20.678Z,0.00
2023-05-11T21:17:21.247Z,0.00
2023-05-11T21:19:21.842Z,0.00
2023-05-11T21:21:22.329Z,0.00
2023-05-11T21:23:23.832Z,0.00
2023-05-11T21:25:24.439Z,0.00
2023-05-11T21:27:24.992Z,0.00
2023-05-11T21:29:25.785Z,0.00
2023-05-11T21:31:26.281Z,0.00
2023-05-11T21:33:26.965Z,0.00
2023-05-11T21:35:27.663Z,0.00
2023-05-11T21:37:28.241Z,0.00
2023-05-11T21:39:29.468Z,0.00
2023-05-11T21:41:29.887Z,0.00
2023-05-11T21:43:30.397Z,0.00
2023-05-11T21:45:30.763Z,0.00
2023-05-11T21:47:31.237Z,0.00
2023-05-11T21:49:31.580Z,0.00
2023-05-11T21:51:32.078Z,0.00
2023-05-11T21:53:32.478Z,0.00
2023-05-11T21:55:32.961Z,0.00
2023-05-11T21:57:33.451Z,0.00
2023-05-11T21:59:33.900Z,0.00
2023-05-11T22:01:34.300Z,0.00
2023-05-11T22:03:35.050Z,0.00
2023-05-11T22:05:35.490Z,0.00
2023-05-11T22:07:35.933Z,0.00
2023-05-11T22:10:18.953Z,0.00
2023-05-11T22:12:19.576Z,0.00
2023-05-11T22:14:19.954Z,0.00
2023-05-11T22:16:20.576Z,0.00
2023-05-11T22:18:20.952Z,0.00
2023-05-11T22:20:21.542Z,0.00
2023-05-11T22:22:22.011Z,0.00
2023-05-11T22:24:22.387Z,0.00
2023-05-11T22:26:22.865Z,0.00
2023-05-11T22:28:23.161Z,0.00
2023-05-11T22:30:23.532Z,0.00
2023-05-11T22:32:23.889Z,0.00
2023-05-11T22:34:24.261Z,0.00
2023-05-11T22:36:24.639Z,0.00
2023-05-11T22:38:25.060Z,0.00
2023-05-11T22:40:25.500Z,0.00
2023-05-11T22:42:25.834Z,0.00
2023-05-11T22:44:26.182Z,0.00
2023-05-11T22:46:26.626Z,0.00
2023-05-11T22:48:27.080Z,0.00
2023-05-11T22:50:27.549Z,0.00
2023-05-11T22:52:27.954Z,0.00
2023-05-11T22:54:28.337Z,0.00
2023-05-11T22:56:28.710Z,0.00
2023-05-11T22:58:29.077Z,0.00
2023-05-11T23:00:29.503Z,0.00
2023-05-11T23:02:29.973Z,0.00
2023-05-11T23:04:30.468Z,0.00
2023-05-11T23:06:30.813Z,0.00
2023-05-11T23:08:31.157Z,0.00
2023-05-11T23:10:31.573Z,0.00
2023-05-11T23:12:31.870Z,0.00
2023-05-11T23:14:32.313Z,0.00
2023-05-11T23:16:32.601Z,0.00
2023-05-11T23:18:33.152Z,0.00
2023-05-11T23:20:33.716Z,0.00
2023-05-11T23:22:34.048Z,0.00
2023-05-11T23:24:34.476Z,0.00
2023-05-11T23:26:34.842Z,0.00
2023-05-11T23:28:35.170Z,0.00
2023-05-11T23:30:35.649Z,0.00
2023-05-11T23:32:36.127Z,0.00
2023-05-11T23:34:36.596Z,0.00
2023-05-11T23:36:37.052Z,0.00
2023-05-11T23:38:37.386Z,0.00
2023-05-11T23:40:37.732Z,0.00
2023-05-11T23:42:38.144Z,0.00
2023-05-11T23:44:38.605Z,0.00
2023-05-11T23:46:39.022Z,0.00
2023-05-11T23:48:44.223Z,0.00
2023-05-11T23:50:44.561Z,0.00
2023-05-11T23:52:44.931Z,0.00
2023-05-11T23:54:45.445Z,0.00
2023-05-11T23:56:45.889Z,0.00
2023-05-11T23:58:46.333Z,0.00
